sensor_id;sensor_type;location;lat;lon;timestamp;P1;durP1;ratioP1;P2;durP2;ratioP2
17935;SDS011;9093;52.062;4.508;2022-12-16T00:00:21;1.45;;;1.02;;
17935;SDS011;9093;52.062;4.508;2022-12-16T00:03:05;1.10;;;0.93;;
17935;SDS011;9093;52.062;4.508;2022-12-16T00:05:47;1.98;;;1.00;;
17935;SDS011;9093;52.062;4.508;2022-12-16T00:08:27;3.85;;;0.93;;
17935;SDS011;9093;52.062;4.508;2022-12-16T00:11:08;1.20;;;0.82;;
17935;SDS011;9093;52.062;4.508;2022-12-16T00:13:49;1.35;;;1.02;;
17935;SDS011;9093;52.062;4.508;2022-12-16T00:16:29;2.70;;;1.65;;
17935;SDS011;9093;52.062;4.508;2022-12-16T00:19:10;3.75;;;1.30;;
17935;SDS011;9093;52.062;4.508;2022-12-16T00:21:50;0.50;;;0.50;;
17935;SDS011;9093;52.062;4.508;2022-12-16T00:24:30;2.15;;;0.82;;
17935;SDS011;9093;52.062;4.508;2022-12-16T00:27:10;1.08;;;0.90;;
17935;SDS011;9093;52.062;4.508;2022-12-16T00:29:51;0.70;;;0.70;;
17935;SDS011;9093;52.062;4.508;2022-12-16T00:32:31;1.30;;;1.10;;
17935;SDS011;9093;52.062;4.508;2022-12-16T00:35:11;0.77;;;0.77;;
17935;SDS011;9093;52.062;4.508;2022-12-16T00:37:55;1.50;;;0.80;;
17935;SDS011;9093;52.062;4.508;2022-12-16T00:40:36;0.68;;;0.65;;
17935;SDS011;9093;52.062;4.508;2022-12-16T00:43:16;1.08;;;0.80;;
17935;SDS011;9093;52.062;4.508;2022-12-16T00:45:57;0.88;;;0.82;;
17935;SDS011;9093;52.062;4.508;2022-12-16T00:48:37;0.77;;;0.77;;
17935;SDS011;9093;52.062;4.508;2022-12-16T00:51:17;1.10;;;0.98;;
17935;SDS011;9093;52.062;4.508;2022-12-16T00:53:58;0.90;;;0.80;;
17935;SDS011;9093;52.062;4.508;2022-12-16T00:56:38;2.75;;;1.00;;
17935;SDS011;9093;52.062;4.508;2022-12-16T00:59:18;0.82;;;0.60;;
17935;SDS011;9093;52.062;4.508;2022-12-16T01:01:58;2.08;;;0.85;;
17935;SDS011;9093;52.062;4.508;2022-12-16T01:04:39;2.95;;;1.70;;
17935;SDS011;9093;52.062;4.508;2022-12-16T01:07:19;1.00;;;0.70;;
17935;SDS011;9093;52.062;4.508;2022-12-16T01:09:59;0.80;;;0.77;;
17935;SDS011;9093;52.062;4.508;2022-12-16T01:12:40;19.67;;;1.33;;
17935;SDS011;9093;52.062;4.508;2022-12-16T01:15:20;3.83;;;0.95;;
17935;SDS011;9093;52.062;4.508;2022-12-16T01:18:01;1.63;;;1.00;;
17935;SDS011;9093;52.062;4.508;2022-12-16T01:20:41;12.43;;;0.85;;
17935;SDS011;9093;52.062;4.508;2022-12-16T01:23:22;5.93;;;1.33;;
17935;SDS011;9093;52.062;4.508;2022-12-16T01:26:02;0.60;;;0.60;;
17935;SDS011;9093;52.062;4.508;2022-12-16T01:28:43;9.27;;;1.23;;
17935;SDS011;9093;52.062;4.508;2022-12-16T01:31:23;2.10;;;0.75;;
17935;SDS011;9093;52.062;4.508;2022-12-16T01:34:04;0.77;;;0.70;;
17935;SDS011;9093;52.062;4.508;2022-12-16T01:36:44;0.60;;;0.60;;
17935;SDS011;9093;52.062;4.508;2022-12-16T01:39:25;2.30;;;0.90;;
17935;SDS011;9093;52.062;4.508;2022-12-16T01:42:13;9.38;;;1.02;;
17935;SDS011;9093;52.062;4.508;2022-12-16T01:45:21;3.33;;;1.20;;
17935;SDS011;9093;52.062;4.508;2022-12-16T01:51:26;0.93;;;0.80;;
17935;SDS011;9093;52.062;4.508;2022-12-16T01:54:26;1.17;;;0.63;;
17935;SDS011;9093;52.062;4.508;2022-12-16T01:57:17;25.52;;;1.27;;
17935;SDS011;9093;52.062;4.508;2022-12-16T02:00:02;1.00;;;0.70;;
17935;SDS011;9093;52.062;4.508;2022-12-16T02:02:48;2.30;;;1.50;;
17935;SDS011;9093;52.062;4.508;2022-12-16T02:05:30;1.00;;;0.90;;
17935;SDS011;9093;52.062;4.508;2022-12-16T02:08:14;1.80;;;0.93;;
17935;SDS011;9093;52.062;4.508;2022-12-16T02:14:02;0.95;;;0.73;;
17935;SDS011;9093;52.062;4.508;2022-12-16T02:16:51;1.38;;;0.90;;
17935;SDS011;9093;52.062;4.508;2022-12-16T02:22:57;0.45;;;0.45;;
17935;SDS011;9093;52.062;4.508;2022-12-16T02:35:29;0.68;;;0.68;;
17935;SDS011;9093;52.062;4.508;2022-12-16T02:41:03;0.90;;;0.80;;
17935;SDS011;9093;52.062;4.508;2022-12-16T02:43:52;0.90;;;0.70;;
17935;SDS011;9093;52.062;4.508;2022-12-16T02:46:40;2.38;;;1.20;;
17935;SDS011;9093;52.062;4.508;2022-12-16T02:52:02;0.77;;;0.60;;
17935;SDS011;9093;52.062;4.508;2022-12-16T02:54:43;2.15;;;0.70;;
17935;SDS011;9093;52.062;4.508;2022-12-16T03:00:40;0.80;;;0.73;;
17935;SDS011;9093;52.062;4.508;2022-12-16T03:06:30;4.03;;;1.77;;
17935;SDS011;9093;52.062;4.508;2022-12-16T03:09:14;0.90;;;0.77;;
17935;SDS011;9093;52.062;4.508;2022-12-16T03:12:02;4.78;;;1.40;;
17935;SDS011;9093;52.062;4.508;2022-12-16T03:14:47;1.45;;;0.75;;
17935;SDS011;9093;52.062;4.508;2022-12-16T03:17:30;3.00;;;0.88;;
17935;SDS011;9093;52.062;4.508;2022-12-16T03:20:13;1.33;;;0.70;;
17935;SDS011;9093;52.062;4.508;2022-12-16T03:22:58;2.15;;;0.70;;
17935;SDS011;9093;52.062;4.508;2022-12-16T03:25:43;0.70;;;0.70;;
17935;SDS011;9093;52.062;4.508;2022-12-16T03:31:38;0.73;;;0.68;;
17935;SDS011;9093;52.062;4.508;2022-12-16T03:34:39;9.77;;;1.52;;
17935;SDS011;9093;52.062;4.508;2022-12-16T03:37:25;8.80;;;1.15;;
17935;SDS011;9093;52.062;4.508;2022-12-16T03:40:10;1.00;;;0.77;;
17935;SDS011;9093;52.062;4.508;2022-12-16T03:42:52;0.88;;;0.65;;
17935;SDS011;9093;52.062;4.508;2022-12-16T03:45:35;1.08;;;0.80;;
17935;SDS011;9093;52.062;4.508;2022-12-16T03:48:24;1.35;;;1.05;;
17935;SDS011;9093;52.062;4.508;2022-12-16T03:51:05;1.42;;;1.25;;
17935;SDS011;9093;52.062;4.508;2022-12-16T03:53:45;1.50;;;0.70;;
17935;SDS011;9093;52.062;4.508;2022-12-16T03:56:26;5.93;;;1.13;;
17935;SDS011;9093;52.062;4.508;2022-12-16T03:59:06;1.30;;;0.80;;
17935;SDS011;9093;52.062;4.508;2022-12-16T04:01:47;0.95;;;0.82;;
17935;SDS011;9093;52.062;4.508;2022-12-16T04:04:27;12.45;;;0.82;;
17935;SDS011;9093;52.062;4.508;2022-12-16T04:07:07;0.80;;;0.63;;
17935;SDS011;9093;52.062;4.508;2022-12-16T04:10:00;0.85;;;0.85;;
17935;SDS011;9093;52.062;4.508;2022-12-16T04:12:41;10.05;;;0.93;;
17935;SDS011;9093;52.062;4.508;2022-12-16T04:15:39;3.90;;;0.90;;
17935;SDS011;9093;52.062;4.508;2022-12-16T04:18:39;1.05;;;0.77;;
17935;SDS011;9093;52.062;4.508;2022-12-16T04:21:38;6.05;;;1.17;;
17935;SDS011;9093;52.062;4.508;2022-12-16T04:24:37;7.00;;;1.80;;
17935;SDS011;9093;52.062;4.508;2022-12-16T04:27:18;0.95;;;0.88;;
17935;SDS011;9093;52.062;4.508;2022-12-16T04:30:04;0.70;;;0.70;;
17935;SDS011;9093;52.062;4.508;2022-12-16T04:33:04;0.85;;;0.75;;
17935;SDS011;9093;52.062;4.508;2022-12-16T04:36:07;0.50;;;0.50;;
17935;SDS011;9093;52.062;4.508;2022-12-16T04:39:06;0.98;;;0.85;;
17935;SDS011;9093;52.062;4.508;2022-12-16T04:42:05;10.88;;;1.40;;
17935;SDS011;9093;52.062;4.508;2022-12-16T04:45:04;1.58;;;1.05;;
17935;SDS011;9093;52.062;4.508;2022-12-16T04:48:04;0.73;;;0.70;;
17935;SDS011;9093;52.062;4.508;2022-12-16T04:51:02;17.05;;;0.80;;
17935;SDS011;9093;52.062;4.508;2022-12-16T04:54:01;2.85;;;2.00;;
17935;SDS011;9093;52.062;4.508;2022-12-16T04:57:00;0.63;;;0.63;;
17935;SDS011;9093;52.062;4.508;2022-12-16T04:59:59;8.35;;;1.45;;
17935;SDS011;9093;52.062;4.508;2022-12-16T05:02:58;0.70;;;0.70;;
17935;SDS011;9093;52.062;4.508;2022-12-16T05:05:57;3.75;;;1.17;;
17935;SDS011;9093;52.062;4.508;2022-12-16T05:08:56;3.22;;;1.67;;
17935;SDS011;9093;52.062;4.508;2022-12-16T05:11:55;0.90;;;0.90;;
17935;SDS011;9093;52.062;4.508;2022-12-16T05:14:54;1.90;;;1.13;;
17935;SDS011;9093;52.062;4.508;2022-12-16T05:17:53;0.88;;;0.82;;
17935;SDS011;9093;52.062;4.508;2022-12-16T05:20:51;5.80;;;0.82;;
17935;SDS011;9093;52.062;4.508;2022-12-16T05:23:50;1.70;;;1.30;;
17935;SDS011;9093;52.062;4.508;2022-12-16T05:26:49;1.42;;;1.05;;
17935;SDS011;9093;52.062;4.508;2022-12-16T05:29:48;1.75;;;1.40;;
17935;SDS011;9093;52.062;4.508;2022-12-16T05:32:48;2.25;;;1.30;;
17935;SDS011;9093;52.062;4.508;2022-12-16T05:35:49;1.25;;;1.17;;
17935;SDS011;9093;52.062;4.508;2022-12-16T05:38:48;5.38;;;2.00;;
17935;SDS011;9093;52.062;4.508;2022-12-16T05:41:48;1.33;;;1.10;;
17935;SDS011;9093;52.062;4.508;2022-12-16T05:44:50;2.10;;;1.23;;
17935;SDS011;9093;52.062;4.508;2022-12-16T05:47:49;1.30;;;1.20;;
17935;SDS011;9093;52.062;4.508;2022-12-16T05:51:02;1.50;;;1.38;;
17935;SDS011;9093;52.062;4.508;2022-12-16T05:54:01;1.20;;;1.10;;
17935;SDS011;9093;52.062;4.508;2022-12-16T05:57:17;2.00;;;1.60;;
17935;SDS011;9093;52.062;4.508;2022-12-16T06:00:15;1.45;;;1.20;;
17935;SDS011;9093;52.062;4.508;2022-12-16T06:03:14;2.35;;;1.70;;
17935;SDS011;9093;52.062;4.508;2022-12-16T06:06:13;1.42;;;1.15;;
17935;SDS011;9093;52.062;4.508;2022-12-16T06:09:15;2.70;;;1.90;;
17935;SDS011;9093;52.062;4.508;2022-12-16T06:12:14;1.38;;;1.25;;
17935;SDS011;9093;52.062;4.508;2022-12-16T06:15:13;2.72;;;1.80;;
17935;SDS011;9093;52.062;4.508;2022-12-16T06:18:12;2.83;;;1.80;;
17935;SDS011;9093;52.062;4.508;2022-12-16T06:21:14;11.77;;;3.03;;
17935;SDS011;9093;52.062;4.508;2022-12-16T06:27:13;4.70;;;2.38;;
17935;SDS011;9093;52.062;4.508;2022-12-16T06:30:12;2.08;;;1.88;;
17935;SDS011;9093;52.062;4.508;2022-12-16T06:33:11;3.70;;;2.22;;
17935;SDS011;9093;52.062;4.508;2022-12-16T06:36:10;1.73;;;1.50;;
17935;SDS011;9093;52.062;4.508;2022-12-16T06:39:08;6.72;;;1.23;;
17935;SDS011;9093;52.062;4.508;2022-12-16T06:42:07;1.55;;;1.45;;
17935;SDS011;9093;52.062;4.508;2022-12-16T06:45:08;4.28;;;1.60;;
17935;SDS011;9093;52.062;4.508;2022-12-16T06:48:07;6.28;;;1.10;;
17935;SDS011;9093;52.062;4.508;2022-12-16T06:51:06;2.85;;;1.25;;
17935;SDS011;9093;52.062;4.508;2022-12-16T06:54:05;1.67;;;1.45;;
17935;SDS011;9093;52.062;4.508;2022-12-16T06:57:04;2.25;;;1.15;;
17935;SDS011;9093;52.062;4.508;2022-12-16T07:00:03;1.30;;;1.20;;
17935;SDS011;9093;52.062;4.508;2022-12-16T07:03:03;1.48;;;1.38;;
17935;SDS011;9093;52.062;4.508;2022-12-16T07:06:02;1.55;;;1.45;;
17935;SDS011;9093;52.062;4.508;2022-12-16T07:09:01;1.92;;;1.73;;
17935;SDS011;9093;52.062;4.508;2022-12-16T07:12:00;2.25;;;1.58;;
17935;SDS011;9093;52.062;4.508;2022-12-16T07:14:59;1.63;;;1.15;;
17935;SDS011;9093;52.062;4.508;2022-12-16T07:17:58;9.48;;;1.58;;
17935;SDS011;9093;52.062;4.508;2022-12-16T07:20:57;2.67;;;1.75;;
17935;SDS011;9093;52.062;4.508;2022-12-16T07:23:56;1.25;;;1.13;;
17935;SDS011;9093;52.062;4.508;2022-12-16T07:26:55;1.90;;;1.38;;
17935;SDS011;9093;52.062;4.508;2022-12-16T07:29:54;3.30;;;1.60;;
17935;SDS011;9093;52.062;4.508;2022-12-16T07:32:53;1.90;;;1.25;;
17935;SDS011;9093;52.062;4.508;2022-12-16T07:35:52;4.00;;;1.70;;
17935;SDS011;9093;52.062;4.508;2022-12-16T07:38:50;3.05;;;1.38;;
17935;SDS011;9093;52.062;4.508;2022-12-16T07:41:49;2.55;;;1.38;;
17935;SDS011;9093;52.062;4.508;2022-12-16T07:44:48;1.48;;;1.20;;
17935;SDS011;9093;52.062;4.508;2022-12-16T07:47:48;2.17;;;1.13;;
17935;SDS011;9093;52.062;4.508;2022-12-16T07:50:48;2.05;;;1.25;;
17935;SDS011;9093;52.062;4.508;2022-12-16T07:53:47;2.30;;;1.15;;
17935;SDS011;9093;52.062;4.508;2022-12-16T07:56:46;1.27;;;1.08;;
17935;SDS011;9093;52.062;4.508;2022-12-16T07:59:45;2.03;;;1.20;;
17935;SDS011;9093;52.062;4.508;2022-12-16T08:02:44;6.10;;;2.65;;
17935;SDS011;9093;52.062;4.508;2022-12-16T08:05:42;3.65;;;2.25;;
17935;SDS011;9093;52.062;4.508;2022-12-16T08:08:41;1.55;;;1.42;;
17935;SDS011;9093;52.062;4.508;2022-12-16T08:11:40;1.00;;;0.90;;
17935;SDS011;9093;52.062;4.508;2022-12-16T08:14:39;1.50;;;1.40;;
17935;SDS011;9093;52.062;4.508;2022-12-16T08:17:41;8.80;;;2.13;;
17935;SDS011;9093;52.062;4.508;2022-12-16T08:20:45;3.58;;;1.90;;
17935;SDS011;9093;52.062;4.508;2022-12-16T08:23:44;2.72;;;1.95;;
17935;SDS011;9093;52.062;4.508;2022-12-16T08:26:43;4.25;;;2.28;;
17935;SDS011;9093;52.062;4.508;2022-12-16T08:29:42;2.05;;;1.38;;
17935;SDS011;9093;52.062;4.508;2022-12-16T08:32:41;2.08;;;1.48;;
17935;SDS011;9093;52.062;4.508;2022-12-16T08:35:40;2.92;;;2.38;;
17935;SDS011;9093;52.062;4.508;2022-12-16T08:38:39;2.78;;;2.38;;
17935;SDS011;9093;52.062;4.508;2022-12-16T08:41:38;6.13;;;1.65;;
17935;SDS011;9093;52.062;4.508;2022-12-16T08:44:37;4.82;;;2.65;;
17935;SDS011;9093;52.062;4.508;2022-12-16T08:47:36;4.40;;;1.98;;
17935;SDS011;9093;52.062;4.508;2022-12-16T08:50:35;1.95;;;1.63;;
17935;SDS011;9093;52.062;4.508;2022-12-16T08:53:34;3.47;;;2.42;;
17935;SDS011;9093;52.062;4.508;2022-12-16T08:56:34;4.53;;;2.30;;
17935;SDS011;9093;52.062;4.508;2022-12-16T08:59:32;9.05;;;1.95;;
17935;SDS011;9093;52.062;4.508;2022-12-16T09:02:31;4.63;;;2.00;;
17935;SDS011;9093;52.062;4.508;2022-12-16T09:05:30;2.63;;;2.05;;
17935;SDS011;9093;52.062;4.508;2022-12-16T09:08:29;3.78;;;2.55;;
17935;SDS011;9093;52.062;4.508;2022-12-16T09:11:29;15.75;;;4.65;;
17935;SDS011;9093;52.062;4.508;2022-12-16T09:14:28;13.50;;;3.45;;
17935;SDS011;9093;52.062;4.508;2022-12-16T09:17:26;1.75;;;1.65;;
17935;SDS011;9093;52.062;4.508;2022-12-16T09:20:25;10.32;;;3.33;;
17935;SDS011;9093;52.062;4.508;2022-12-16T09:23:24;3.38;;;1.73;;
17935;SDS011;9093;52.062;4.508;2022-12-16T09:26:27;2.33;;;1.92;;
17935;SDS011;9093;52.062;4.508;2022-12-16T09:29:27;4.68;;;1.80;;
17935;SDS011;9093;52.062;4.508;2022-12-16T09:32:25;4.65;;;1.73;;
17935;SDS011;9093;52.062;4.508;2022-12-16T09:35:24;3.38;;;2.28;;
17935;SDS011;9093;52.062;4.508;2022-12-16T09:38:23;2.88;;;2.05;;
17935;SDS011;9093;52.062;4.508;2022-12-16T09:50:54;2.63;;;1.67;;
17935;SDS011;9093;52.062;4.508;2022-12-16T09:53:56;6.75;;;2.53;;
17935;SDS011;9093;52.062;4.508;2022-12-16T09:56:55;2.00;;;1.30;;
17935;SDS011;9093;52.062;4.508;2022-12-16T09:59:58;3.35;;;2.17;;
17935;SDS011;9093;52.062;4.508;2022-12-16T10:02:59;6.15;;;1.88;;
17935;SDS011;9093;52.062;4.508;2022-12-16T10:15:51;2.63;;;1.73;;
17935;SDS011;9093;52.062;4.508;2022-12-16T10:25:44;2.28;;;1.40;;
17935;SDS011;9093;52.062;4.508;2022-12-16T10:28:50;1.85;;;1.48;;
17935;SDS011;9093;52.062;4.508;2022-12-16T10:31:54;2.60;;;2.13;;
17935;SDS011;9093;52.062;4.508;2022-12-16T10:34:53;4.15;;;2.53;;
17935;SDS011;9093;52.062;4.508;2022-12-16T10:37:52;3.28;;;2.20;;
17935;SDS011;9093;52.062;4.508;2022-12-16T10:40:51;3.33;;;2.25;;
17935;SDS011;9093;52.062;4.508;2022-12-16T10:43:50;6.30;;;2.75;;
17935;SDS011;9093;52.062;4.508;2022-12-16T10:46:51;2.38;;;1.88;;
17935;SDS011;9093;52.062;4.508;2022-12-16T10:49:50;2.35;;;2.03;;
17935;SDS011;9093;52.062;4.508;2022-12-16T10:52:53;2.00;;;1.33;;
17935;SDS011;9093;52.062;4.508;2022-12-16T10:59:35;2.78;;;1.90;;
17935;SDS011;9093;52.062;4.508;2022-12-16T11:02:36;7.15;;;2.10;;
17935;SDS011;9093;52.062;4.508;2022-12-16T11:05:34;2.35;;;1.63;;
17935;SDS011;9093;52.062;4.508;2022-12-16T11:08:34;3.85;;;2.13;;
17935;SDS011;9093;52.062;4.508;2022-12-16T11:11:33;1.73;;;1.63;;
17935;SDS011;9093;52.062;4.508;2022-12-16T11:14:32;6.07;;;2.10;;
17935;SDS011;9093;52.062;4.508;2022-12-16T11:17:31;2.80;;;2.17;;
17935;SDS011;9093;52.062;4.508;2022-12-16T11:20:30;4.80;;;1.98;;
17935;SDS011;9093;52.062;4.508;2022-12-16T11:23:29;2.17;;;1.92;;
17935;SDS011;9093;52.062;4.508;2022-12-16T11:26:28;5.93;;;1.85;;
17935;SDS011;9093;52.062;4.508;2022-12-16T11:29:27;2.95;;;1.50;;
17935;SDS011;9093;52.062;4.508;2022-12-16T11:32:47;3.53;;;2.10;;
17935;SDS011;9093;52.062;4.508;2022-12-16T11:35:54;1.70;;;1.52;;
17935;SDS011;9093;52.062;4.508;2022-12-16T11:39:04;3.47;;;1.83;;
17935;SDS011;9093;52.062;4.508;2022-12-16T11:42:05;1.98;;;1.38;;
17935;SDS011;9093;52.062;4.508;2022-12-16T11:45:12;3.20;;;1.83;;
17935;SDS011;9093;52.062;4.508;2022-12-16T11:48:18;1.70;;;1.50;;
17935;SDS011;9093;52.062;4.508;2022-12-16T11:51:39;4.28;;;1.48;;
17935;SDS011;9093;52.062;4.508;2022-12-16T11:54:45;4.78;;;1.92;;
17935;SDS011;9093;52.062;4.508;2022-12-16T12:04:24;1.60;;;1.10;;
17935;SDS011;9093;52.062;4.508;2022-12-16T12:07:29;2.58;;;1.63;;
17935;SDS011;9093;52.062;4.508;2022-12-16T12:10:41;1.55;;;1.40;;
17935;SDS011;9093;52.062;4.508;2022-12-16T12:17:14;4.18;;;2.35;;
17935;SDS011;9093;52.062;4.508;2022-12-16T12:23:37;2.80;;;1.42;;
17935;SDS011;9093;52.062;4.508;2022-12-16T12:26:48;5.68;;;2.15;;
17935;SDS011;9093;52.062;4.508;2022-12-16T12:33:06;5.13;;;1.73;;
17935;SDS011;9093;52.062;4.508;2022-12-16T12:39:44;2.13;;;1.50;;
17935;SDS011;9093;52.062;4.508;2022-12-16T12:42:46;9.57;;;2.85;;
17935;SDS011;9093;52.062;4.508;2022-12-16T12:46:05;9.70;;;1.65;;
17935;SDS011;9093;52.062;4.508;2022-12-16T12:59:19;5.18;;;1.17;;
17935;SDS011;9093;52.062;4.508;2022-12-16T13:02:23;3.38;;;1.27;;
17935;SDS011;9093;52.062;4.508;2022-12-16T13:05:25;3.83;;;1.10;;
17935;SDS011;9093;52.062;4.508;2022-12-16T13:08:31;1.30;;;1.20;;
17935;SDS011;9093;52.062;4.508;2022-12-16T13:11:36;2.47;;;1.67;;
17935;SDS011;9093;52.062;4.508;2022-12-16T13:20:56;3.97;;;1.58;;
17935;SDS011;9093;52.062;4.508;2022-12-16T13:23:56;1.77;;;1.33;;
17935;SDS011;9093;52.062;4.508;2022-12-16T13:26:59;2.55;;;1.73;;
17935;SDS011;9093;52.062;4.508;2022-12-16T13:30:00;3.40;;;1.23;;
17935;SDS011;9093;52.062;4.508;2022-12-16T13:36:03;6.43;;;1.20;;
17935;SDS011;9093;52.062;4.508;2022-12-16T13:39:20;3.38;;;2.08;;
17935;SDS011;9093;52.062;4.508;2022-12-16T13:55:56;2.05;;;1.55;;
17935;SDS011;9093;52.062;4.508;2022-12-16T13:59:05;2.85;;;1.60;;
17935;SDS011;9093;52.062;4.508;2022-12-16T14:05:26;3.05;;;1.85;;
17935;SDS011;9093;52.062;4.508;2022-12-16T14:08:28;1.85;;;1.67;;
17935;SDS011;9093;52.062;4.508;2022-12-16T14:14:50;3.53;;;1.67;;
17935;SDS011;9093;52.062;4.508;2022-12-16T14:17:59;3.28;;;1.77;;
17935;SDS011;9093;52.062;4.508;2022-12-16T14:21:05;2.47;;;1.50;;
17935;SDS011;9093;52.062;4.508;2022-12-16T14:24:12;2.95;;;1.67;;
17935;SDS011;9093;52.062;4.508;2022-12-16T14:27:20;3.33;;;1.60;;
17935;SDS011;9093;52.062;4.508;2022-12-16T14:30:20;4.32;;;2.88;;
17935;SDS011;9093;52.062;4.508;2022-12-16T14:33:22;2.08;;;1.50;;
17935;SDS011;9093;52.062;4.508;2022-12-16T14:36:26;2.03;;;1.52;;
17935;SDS011;9093;52.062;4.508;2022-12-16T14:39:29;3.58;;;2.10;;
17935;SDS011;9093;52.062;4.508;2022-12-16T14:42:33;3.25;;;1.80;;
17935;SDS011;9093;52.062;4.508;2022-12-16T14:45:36;4.68;;;1.75;;
17935;SDS011;9093;52.062;4.508;2022-12-16T14:48:37;2.17;;;1.70;;
17935;SDS011;9093;52.062;4.508;2022-12-16T14:51:37;3.88;;;1.48;;
17935;SDS011;9093;52.062;4.508;2022-12-16T14:54:42;2.00;;;1.60;;
17935;SDS011;9093;52.062;4.508;2022-12-16T14:57:41;3.95;;;2.13;;
17935;SDS011;9093;52.062;4.508;2022-12-16T15:00:40;1.20;;;1.05;;
17935;SDS011;9093;52.062;4.508;2022-12-16T15:03:59;9.65;;;2.30;;
17935;SDS011;9093;52.062;4.508;2022-12-16T15:07:00;2.35;;;1.40;;
17935;SDS011;9093;52.062;4.508;2022-12-16T15:10:02;3.40;;;2.03;;
17935;SDS011;9093;52.062;4.508;2022-12-16T15:13:02;5.40;;;1.88;;
17935;SDS011;9093;52.062;4.508;2022-12-16T15:16:01;3.80;;;1.98;;
17935;SDS011;9093;52.062;4.508;2022-12-16T15:19:02;3.70;;;1.90;;
17935;SDS011;9093;52.062;4.508;2022-12-16T15:22:02;3.40;;;1.63;;
17935;SDS011;9093;52.062;4.508;2022-12-16T15:25:01;3.13;;;2.20;;
17935;SDS011;9093;52.062;4.508;2022-12-16T15:28:01;1.95;;;1.63;;
17935;SDS011;9093;52.062;4.508;2022-12-16T15:31:00;5.50;;;2.47;;
17935;SDS011;9093;52.062;4.508;2022-12-16T15:37:30;5.43;;;2.40;;
17935;SDS011;9093;52.062;4.508;2022-12-16T15:40:35;4.55;;;2.28;;
17935;SDS011;9093;52.062;4.508;2022-12-16T15:43:37;8.48;;;2.72;;
17935;SDS011;9093;52.062;4.508;2022-12-16T15:46:37;5.75;;;1.83;;
17935;SDS011;9093;52.062;4.508;2022-12-16T15:49:37;3.40;;;2.08;;
17935;SDS011;9093;52.062;4.508;2022-12-16T15:52:41;7.65;;;2.97;;
17935;SDS011;9093;52.062;4.508;2022-12-16T15:55:41;6.15;;;2.58;;
17935;SDS011;9093;52.062;4.508;2022-12-16T15:58:40;5.60;;;2.55;;
17935;SDS011;9093;52.062;4.508;2022-12-16T16:01:42;26.30;;;3.65;;
17935;SDS011;9093;52.062;4.508;2022-12-16T16:04:41;4.63;;;3.08;;
17935;SDS011;9093;52.062;4.508;2022-12-16T16:07:41;6.38;;;2.58;;
17935;SDS011;9093;52.062;4.508;2022-12-16T16:10:41;4.25;;;2.15;;
17935;SDS011;9093;52.062;4.508;2022-12-16T16:13:43;6.18;;;3.40;;
17935;SDS011;9093;52.062;4.508;2022-12-16T16:16:42;5.60;;;2.58;;
17935;SDS011;9093;52.062;4.508;2022-12-16T16:19:41;4.40;;;3.03;;
17935;SDS011;9093;52.062;4.508;2022-12-16T16:22:40;7.72;;;4.10;;
17935;SDS011;9093;52.062;4.508;2022-12-16T16:25:39;5.97;;;3.35;;
17935;SDS011;9093;52.062;4.508;2022-12-16T16:28:39;6.55;;;2.92;;
17935;SDS011;9093;52.062;4.508;2022-12-16T16:31:37;3.78;;;2.88;;
17935;SDS011;9093;52.062;4.508;2022-12-16T16:34:36;5.43;;;3.40;;
17935;SDS011;9093;52.062;4.508;2022-12-16T16:37:35;11.48;;;3.47;;
17935;SDS011;9093;52.062;4.508;2022-12-16T16:43:35;4.78;;;2.85;;
17935;SDS011;9093;52.062;4.508;2022-12-16T16:49:41;24.80;;;4.53;;
17935;SDS011;9093;52.062;4.508;2022-12-16T16:52:42;6.70;;;4.03;;
17935;SDS011;9093;52.062;4.508;2022-12-16T16:55:42;7.15;;;3.53;;
17935;SDS011;9093;52.062;4.508;2022-12-16T16:58:40;10.48;;;3.33;;
17935;SDS011;9093;52.062;4.508;2022-12-16T17:01:39;10.30;;;4.93;;
17935;SDS011;9093;52.062;4.508;2022-12-16T17:04:39;8.82;;;4.20;;
17935;SDS011;9093;52.062;4.508;2022-12-16T17:07:38;22.98;;;5.95;;
17935;SDS011;9093;52.062;4.508;2022-12-16T17:10:36;9.07;;;5.25;;
17935;SDS011;9093;52.062;4.508;2022-12-16T17:13:35;8.50;;;4.72;;
17935;SDS011;9093;52.062;4.508;2022-12-16T17:16:34;8.48;;;5.78;;
17935;SDS011;9093;52.062;4.508;2022-12-16T17:19:36;9.95;;;4.85;;
17935;SDS011;9093;52.062;4.508;2022-12-16T17:22:35;7.75;;;5.00;;
17935;SDS011;9093;52.062;4.508;2022-12-16T17:25:34;8.38;;;4.65;;
17935;SDS011;9093;52.062;4.508;2022-12-16T17:28:33;10.75;;;4.53;;
17935;SDS011;9093;52.062;4.508;2022-12-16T17:31:32;16.90;;;5.10;;
17935;SDS011;9093;52.062;4.508;2022-12-16T17:34:31;9.52;;;4.72;;
17935;SDS011;9093;52.062;4.508;2022-12-16T17:37:30;6.85;;;4.40;;
17935;SDS011;9093;52.062;4.508;2022-12-16T17:40:36;5.35;;;3.47;;
17935;SDS011;9093;52.062;4.508;2022-12-16T17:43:35;13.60;;;5.32;;
17935;SDS011;9093;52.062;4.508;2022-12-16T17:46:34;13.02;;;4.40;;
17935;SDS011;9093;52.062;4.508;2022-12-16T17:49:33;11.57;;;4.80;;
17935;SDS011;9093;52.062;4.508;2022-12-16T17:52:32;9.50;;;4.63;;
17935;SDS011;9093;52.062;4.508;2022-12-16T17:55:32;12.27;;;5.68;;
17935;SDS011;9093;52.062;4.508;2022-12-16T17:58:32;7.55;;;4.35;;
17935;SDS011;9093;52.062;4.508;2022-12-16T18:01:32;16.25;;;7.45;;
17935;SDS011;9093;52.062;4.508;2022-12-16T18:04:31;14.82;;;6.95;;
17935;SDS011;9093;52.062;4.508;2022-12-16T18:07:30;11.65;;;7.45;;
17935;SDS011;9093;52.062;4.508;2022-12-16T18:10:32;17.92;;;7.07;;
17935;SDS011;9093;52.062;4.508;2022-12-16T18:13:31;10.73;;;5.18;;
17935;SDS011;9093;52.062;4.508;2022-12-16T18:16:30;11.55;;;7.45;;
17935;SDS011;9093;52.062;4.508;2022-12-16T18:19:29;14.93;;;6.45;;
17935;SDS011;9093;52.062;4.508;2022-12-16T18:22:28;20.30;;;5.20;;
17935;SDS011;9093;52.062;4.508;2022-12-16T18:25:27;8.48;;;5.03;;
17935;SDS011;9093;52.062;4.508;2022-12-16T18:28:26;7.57;;;4.45;;
17935;SDS011;9093;52.062;4.508;2022-12-16T18:31:25;10.65;;;5.57;;
17935;SDS011;9093;52.062;4.508;2022-12-16T18:34:24;15.25;;;6.35;;
17935;SDS011;9093;52.062;4.508;2022-12-16T18:37:22;12.27;;;6.03;;
17935;SDS011;9093;52.062;4.508;2022-12-16T18:40:22;9.07;;;6.15;;
17935;SDS011;9093;52.062;4.508;2022-12-16T18:43:21;7.70;;;5.18;;
17935;SDS011;9093;52.062;4.508;2022-12-16T18:46:24;12.38;;;4.80;;
17935;SDS011;9093;52.062;4.508;2022-12-16T18:49:23;14.68;;;6.20;;
17935;SDS011;9093;52.062;4.508;2022-12-16T18:52:22;7.38;;;3.92;;
17935;SDS011;9093;52.062;4.508;2022-12-16T18:55:20;6.43;;;3.90;;
17935;SDS011;9093;52.062;4.508;2022-12-16T18:58:19;13.73;;;4.38;;
17935;SDS011;9093;52.062;4.508;2022-12-16T19:01:18;7.45;;;4.63;;
17935;SDS011;9093;52.062;4.508;2022-12-16T19:04:17;8.75;;;5.07;;
17935;SDS011;9093;52.062;4.508;2022-12-16T19:07:16;9.07;;;4.35;;
17935;SDS011;9093;52.062;4.508;2022-12-16T19:10:21;10.93;;;5.35;;
17935;SDS011;9093;52.062;4.508;2022-12-16T19:13:21;22.85;;;6.03;;
17935;SDS011;9093;52.062;4.508;2022-12-16T19:16:20;5.65;;;4.28;;
17935;SDS011;9093;52.062;4.508;2022-12-16T19:19:19;7.15;;;5.28;;
17935;SDS011;9093;52.062;4.508;2022-12-16T19:22:18;7.63;;;5.00;;
17935;SDS011;9093;52.062;4.508;2022-12-16T19:25:17;8.65;;;4.25;;
17935;SDS011;9093;52.062;4.508;2022-12-16T19:28:19;7.70;;;5.07;;
17935;SDS011;9093;52.062;4.508;2022-12-16T19:31:18;8.00;;;4.68;;
17935;SDS011;9093;52.062;4.508;2022-12-16T19:34:20;9.50;;;4.47;;
17935;SDS011;9093;52.062;4.508;2022-12-16T19:37:19;11.50;;;6.22;;
17935;SDS011;9093;52.062;4.508;2022-12-16T19:40:18;9.75;;;5.25;;
17935;SDS011;9093;52.062;4.508;2022-12-16T19:43:20;10.93;;;4.72;;
17935;SDS011;9093;52.062;4.508;2022-12-16T19:46:19;22.13;;;5.95;;
17935;SDS011;9093;52.062;4.508;2022-12-16T19:49:17;13.65;;;5.72;;
17935;SDS011;9093;52.062;4.508;2022-12-16T19:52:16;5.85;;;5.10;;
17935;SDS011;9093;52.062;4.508;2022-12-16T19:55:15;14.38;;;5.82;;
17935;SDS011;9093;52.062;4.508;2022-12-16T19:58:18;9.65;;;6.03;;
17935;SDS011;9093;52.062;4.508;2022-12-16T20:01:17;4.60;;;3.72;;
17935;SDS011;9093;52.062;4.508;2022-12-16T20:04:16;10.98;;;5.43;;
17935;SDS011;9093;52.062;4.508;2022-12-16T20:07:15;6.57;;;4.18;;
17935;SDS011;9093;52.062;4.508;2022-12-16T20:10:14;9.13;;;4.93;;
17935;SDS011;9093;52.062;4.508;2022-12-16T20:13:13;14.60;;;5.75;;
17935;SDS011;9093;52.062;4.508;2022-12-16T20:16:12;20.65;;;5.32;;